sensor_id;sensor_type;location;lat;lon;timestamp;pressure;altitude;pressure_sealevel;temperature;humidity
82249;BME280;71851;49.092;18.918;2023-07-29T00:01:48;96778.69;;;22.44;56.61
82249;BME280;71851;49.092;18.918;2023-07-29T00:04:49;96778.97;;;22.42;56.67
82249;BME280;71851;49.092;18.918;2023-07-29T00:07:50;96778.97;;;22.42;56.42
82249;BME280;71851;49.092;18.918;2023-07-29T00:10:50;96786.19;;;22.42;56.79
82249;BME280;71851;49.092;18.918;2023-07-29T00:13:51;96772.00;;;22.41;56.64
82249;BME280;71851;49.092;18.918;2023-07-29T00:16:52;96780.03;;;22.41;56.48
82249;BME280;71851;49.092;18.918;2023-07-29T00:19:53;96780.28;;;22.40;56.33
82249;BME280;71851;49.092;18.918;2023-07-29T00:22:53;96776.81;;;22.39;56.75
82249;BME280;71851;49.092;18.918;2023-07-29T00:25:54;96776.00;;;22.39;56.78
82249;BME280;71851;49.092;18.918;2023-07-29T00:28:56;96778.13;;;22.37;56.39
82249;BME280;71851;49.092;18.918;2023-07-29T00:31:56;96781.63;;;22.37;56.69
82249;BME280;71851;49.092;18.918;2023-07-29T00:34:57;96785.38;;;22.36;56.19
82249;BME280;71851;49.092;18.918;2023-07-29T00:37:57;96781.09;;;22.35;56.87
82249;BME280;71851;49.092;18.918;2023-07-29T00:40:58;96772.00;;;22.36;56.68
82249;BME280;71851;49.092;18.918;2023-07-29T00:44:00;96782.72;;;22.36;56.26
82249;BME280;71851;49.092;18.918;2023-07-29T00:47:02;96772.25;;;22.35;57.09
82249;BME280;71851;49.092;18.918;2023-07-29T00:50:03;96776.81;;;22.34;56.58
82249;BME280;71851;49.092;18.918;2023-07-29T00:53:04;96772.53;;;22.33;56.62
82249;BME280;71851;49.092;18.918;2023-07-29T00:56:05;96774.41;;;22.33;56.45
82249;BME280;71851;49.092;18.918;2023-07-29T00:59:06;96766.66;;;22.31;57.00
82249;BME280;71851;49.092;18.918;2023-07-29T01:02:07;96775.22;;;22.33;56.57
82249;BME280;71851;49.092;18.918;2023-07-29T01:05:08;96764.50;;;22.33;56.95
82249;BME280;71851;49.092;18.918;2023-07-29T01:08:21;96759.44;;;22.32;57.05
82249;BME280;71851;49.092;18.918;2023-07-29T01:14:51;96754.91;;;22.32;56.88
82249;BME280;71851;49.092;18.918;2023-07-29T01:18:00;96767.47;;;22.32;57.03
82249;BME280;71851;49.092;18.918;2023-07-29T01:21:04;96762.13;;;22.32;56.73
82249;BME280;71851;49.092;18.918;2023-07-29T01:24:07;96763.97;;;22.31;56.83
82249;BME280;71851;49.092;18.918;2023-07-29T01:27:07;96760.50;;;22.31;57.06
82249;BME280;71851;49.092;18.918;2023-07-29T01:30:08;96756.75;;;22.32;56.42
82249;BME280;71851;49.092;18.918;2023-07-29T01:33:25;96763.97;;;22.31;57.18
82249;BME280;71851;49.092;18.918;2023-07-29T01:36:28;96773.84;;;22.31;57.45
82249;BME280;71851;49.092;18.918;2023-07-29T01:39:32;96763.97;;;22.31;57.26
82249;BME280;71851;49.092;18.918;2023-07-29T01:42:36;96752.75;;;22.29;57.26
82249;BME280;71851;49.092;18.918;2023-07-29T01:45:37;96744.72;;;22.29;57.10
82249;BME280;71851;49.092;18.918;2023-07-29T01:48:38;96742.88;;;22.30;56.90
82249;BME280;71851;49.092;18.918;2023-07-29T01:51:39;96749.25;;;22.29;57.39
82249;BME280;71851;49.092;18.918;2023-07-29T01:54:39;96742.88;;;22.30;57.17
82249;BME280;71851;49.092;18.918;2023-07-29T01:57:40;96745.00;;;22.28;56.54
82249;BME280;71851;49.092;18.918;2023-07-29T02:00:40;96754.88;;;22.27;56.43
82249;BME280;71851;49.092;18.918;2023-07-29T02:03:41;96747.94;;;22.26;56.54
82249;BME280;71851;49.092;18.918;2023-07-29T02:06:41;96753.03;;;22.28;57.61
82249;BME280;71851;49.092;18.918;2023-07-29T02:09:42;96753.03;;;22.28;56.50
82249;BME280;71851;49.092;18.918;2023-07-29T02:12:42;96749.81;;;22.26;56.94
82249;BME280;71851;49.092;18.918;2023-07-29T02:15:43;96743.91;;;22.29;56.97
82249;BME280;71851;49.092;18.918;2023-07-29T02:18:43;96746.88;;;22.27;56.54
82249;BME280;71851;49.092;18.918;2023-07-29T02:21:44;96755.69;;;22.28;57.30
82249;BME280;71851;49.092;18.918;2023-07-29T02:24:44;96760.22;;;22.27;57.05
82249;BME280;71851;49.092;18.918;2023-07-29T02:27:45;96761.84;;;22.28;57.05
82249;BME280;71851;49.092;18.918;2023-07-29T02:30:45;96762.63;;;22.29;56.92
82249;BME280;71851;49.092;18.918;2023-07-29T02:33:47;96767.19;;;22.28;56.79
82249;BME280;71851;49.092;18.918;2023-07-29T02:36:48;96772.78;;;22.27;56.65
82249;BME280;71851;49.092;18.918;2023-07-29T02:39:49;96764.22;;;22.25;57.00
82249;BME280;71851;49.092;18.918;2023-07-29T02:42:49;96760.22;;;22.27;57.18
82249;BME280;71851;49.092;18.918;2023-07-29T02:45:50;96766.66;;;22.26;56.84
82249;BME280;71851;49.092;18.918;2023-07-29T02:48:50;96772.00;;;22.26;56.65
82249;BME280;71851;49.092;18.918;2023-07-29T02:51:51;96763.19;;;22.26;56.73
82249;BME280;71851;49.092;18.918;2023-07-29T02:54:51;96762.09;;;22.27;57.09
82249;BME280;71851;49.092;18.918;2023-07-29T02:57:52;96770.13;;;22.27;57.12
82249;BME280;71851;49.092;18.918;2023-07-29T03:00:52;96773.59;;;22.27;56.71
82249;BME280;71851;49.092;18.918;2023-07-29T03:03:53;96764.00;;;22.26;56.83
82249;BME280;71851;49.092;18.918;2023-07-29T03:06:53;96766.66;;;22.26;56.95
82249;BME280;71851;49.092;18.918;2023-07-29T03:09:54;96775.72;;;22.25;56.54
82249;BME280;71851;49.092;18.918;2023-07-29T03:12:54;96769.56;;;22.25;56.82
82249;BME280;71851;49.092;18.918;2023-07-29T03:16:08;96765.84;;;22.26;57.44
82249;BME280;71851;49.092;18.918;2023-07-29T03:19:09;96776.81;;;22.24;56.65
82249;BME280;71851;49.092;18.918;2023-07-29T03:22:09;96771.47;;;22.24;57.02
82249;BME280;71851;49.092;18.918;2023-07-29T03:25:10;96768.00;;;22.24;57.20
82249;BME280;71851;49.092;18.918;2023-07-29T03:28:10;96775.19;;;22.23;57.59
82249;BME280;71851;49.092;18.918;2023-07-29T03:31:11;96778.41;;;22.25;57.55
82249;BME280;71851;49.092;18.918;2023-07-29T03:34:11;96777.88;;;22.23;57.45
82249;BME280;71851;49.092;18.918;2023-07-29T03:37:15;96774.94;;;22.25;57.10
82249;BME280;71851;49.092;18.918;2023-07-29T03:40:15;96771.47;;;22.24;56.96
82249;BME280;71851;49.092;18.918;2023-07-29T03:43:16;96770.38;;;22.25;56.52
82249;BME280;71851;49.092;18.918;2023-07-29T03:46:16;96772.00;;;22.26;57.66
82249;BME280;71851;49.092;18.918;2023-07-29T03:49:20;96776.00;;;22.24;56.99
82249;BME280;71851;49.092;18.918;2023-07-29T03:52:21;96777.88;;;22.23;56.84
82249;BME280;71851;49.092;18.918;2023-07-29T03:55:22;96780.56;;;22.23;57.11
82249;BME280;71851;49.092;18.918;2023-07-29T03:58:23;96782.16;;;22.24;57.08
82249;BME280;71851;49.092;18.918;2023-07-29T04:01:23;96781.91;;;22.26;57.03
82249;BME280;71851;49.092;18.918;2023-07-29T04:04:24;96779.50;;;22.24;57.41
82249;BME280;71851;49.092;18.918;2023-07-29T04:07:25;96792.88;;;22.24;56.96
82249;BME280;71851;49.092;18.918;2023-07-29T04:10:25;96781.88;;;22.21;57.10
82249;BME280;71851;49.092;18.918;2023-07-29T04:13:26;96781.34;;;22.24;57.48
82249;BME280;71851;49.092;18.918;2023-07-29T04:16:26;96784.56;;;22.26;57.77
82249;BME280;71851;49.092;18.918;2023-07-29T04:19:27;96783.75;;;22.25;57.68
82249;BME280;71851;49.092;18.918;2023-07-29T04:22:27;96780.03;;;22.26;57.28
82249;BME280;71851;49.092;18.918;2023-07-29T04:25:28;96782.72;;;22.26;57.54
82249;BME280;71851;49.092;18.918;2023-07-29T04:28:29;96794.19;;;22.27;57.38
82249;BME280;71851;49.092;18.918;2023-07-29T04:31:29;96791.50;;;22.27;57.42
82249;BME280;71851;49.092;18.918;2023-07-29T04:34:30;96795.25;;;22.26;57.65
82249;BME280;71851;49.092;18.918;2023-07-29T04:37:31;96797.66;;;22.27;57.67
82249;BME280;71851;49.092;18.918;2023-07-29T04:40:33;96783.25;;;22.28;57.91
82249;BME280;71851;49.092;18.918;2023-07-29T04:43:33;96783.50;;;22.32;57.68
82249;BME280;71851;49.092;18.918;2023-07-29T04:46:36;96783.50;;;22.32;57.70
82249;BME280;71851;49.092;18.918;2023-07-29T04:49:36;96794.72;;;22.34;57.76
82249;BME280;71851;49.092;18.918;2023-07-29T04:52:37;96782.41;;;22.33;57.54
82249;BME280;71851;49.092;18.918;2023-07-29T04:55:37;96790.19;;;22.34;57.39
82249;BME280;71851;49.092;18.918;2023-07-29T04:58:37;96797.41;;;22.34;57.53
82249;BME280;71851;49.092;18.918;2023-07-29T05:01:38;96792.88;;;22.34;58.20
82249;BME280;71851;49.092;18.918;2023-07-29T05:04:39;96806.50;;;22.38;57.86
82249;BME280;71851;49.092;18.918;2023-07-29T05:07:39;96804.63;;;22.38;57.58
82249;BME280;71851;49.092;18.918;2023-07-29T05:10:39;96805.16;;;22.35;57.85
82249;BME280;71851;49.092;18.918;2023-07-29T05:13:40;96811.31;;;22.36;57.81
82249;BME280;71851;49.092;18.918;2023-07-29T05:16:41;96808.63;;;22.36;58.10
82249;BME280;71851;49.092;18.918;2023-07-29T05:19:42;96816.41;;;22.32;57.94
82249;BME280;71851;49.092;18.918;2023-07-29T05:22:42;96812.13;;;22.36;57.59
82249;BME280;71851;49.092;18.918;2023-07-29T05:25:43;96809.44;;;22.36;57.66
82249;BME280;71851;49.092;18.918;2023-07-29T05:28:43;96815.88;;;22.40;57.57
82249;BME280;71851;49.092;18.918;2023-07-29T05:31:44;96819.31;;;22.41;57.41
82249;BME280;71851;49.092;18.918;2023-07-29T05:34:45;96816.41;;;22.42;57.61
82249;BME280;71851;49.092;18.918;2023-07-29T05:37:45;96811.59;;;22.44;57.40
82249;BME280;71851;49.092;18.918;2023-07-29T05:40:48;96817.72;;;22.45;57.33
82249;BME280;71851;49.092;18.918;2023-07-29T05:43:48;96818.25;;;22.47;57.23
82249;BME280;71851;49.092;18.918;2023-07-29T05:46:49;96812.38;;;22.50;57.04
82249;BME280;71851;49.092;18.918;2023-07-29T05:49:49;96804.88;;;22.47;57.08
82249;BME280;71851;49.092;18.918;2023-07-29T05:52:50;96809.72;;;22.50;57.13
82249;BME280;71851;49.092;18.918;2023-07-29T05:55:50;96809.16;;;22.53;56.97
82249;BME280;71851;49.092;18.918;2023-07-29T05:58:51;96806.25;;;22.54;56.91
82249;BME280;71851;49.092;18.918;2023-07-29T06:01:51;96814.28;;;22.54;56.91
82249;BME280;71851;49.092;18.918;2023-07-29T06:04:52;96826.56;;;22.55;57.02
82249;BME280;71851;49.092;18.918;2023-07-29T06:07:52;96828.97;;;22.57;56.78
82249;BME280;71851;49.092;18.918;2023-07-29T06:10:53;96834.31;;;22.52;56.67
82249;BME280;71851;49.092;18.918;2023-07-29T06:13:53;96823.91;;;22.50;56.82
82249;BME280;71851;49.092;18.918;2023-07-29T06:16:54;96841.03;;;22.54;56.92
82249;BME280;71851;49.092;18.918;2023-07-29T06:19:54;96837.00;;;22.52;57.06
82249;BME280;71851;49.092;18.918;2023-07-29T06:22:54;96835.66;;;22.54;56.82
82249;BME280;71851;49.092;18.918;2023-07-29T06:25:55;96841.56;;;22.56;56.69
82249;BME280;71851;49.092;18.918;2023-07-29T06:28:55;96841.56;;;22.56;56.76
82249;BME280;71851;49.092;18.918;2023-07-29T06:31:55;96850.34;;;22.57;56.41
82249;BME280;71851;49.092;18.918;2023-07-29T06:34:56;96849.34;;;22.58;56.80
82249;BME280;71851;49.092;18.918;2023-07-29T06:37:56;96852.28;;;22.61;56.62
82249;BME280;71851;49.092;18.918;2023-07-29T06:40:57;96849.31;;;22.63;56.64
82249;BME280;71851;49.092;18.918;2023-07-29T06:43:57;96845.88;;;22.62;56.66
82249;BME280;71851;49.092;18.918;2023-07-29T06:46:58;96852.53;;;22.65;56.39
82249;BME280;71851;49.092;18.918;2023-07-29T06:49:58;96856.84;;;22.66;56.72
82249;BME280;71851;49.092;18.918;2023-07-29T06:52:59;96855.75;;;22.67;56.68
82249;BME280;71851;49.092;18.918;2023-07-29T06:55:59;96853.88;;;22.67;57.04
82249;BME280;71851;49.092;18.918;2023-07-29T06:59:00;96847.19;;;22.70;56.65
82249;BME280;71851;49.092;18.918;2023-07-29T07:02:00;96844.78;;;22.68;57.07
82249;BME280;71851;49.092;18.918;2023-07-29T07:05:02;96849.59;;;22.71;56.80
82249;BME280;71851;49.092;18.918;2023-07-29T07:08:02;96846.91;;;22.71;56.98
82249;BME280;71851;49.092;18.918;2023-07-29T07:11:03;96845.88;;;22.72;56.47
82249;BME280;71851;49.092;18.918;2023-07-29T07:14:03;96844.00;;;22.78;56.58
82249;BME280;71851;49.092;18.918;2023-07-29T07:17:04;96848.25;;;22.84;56.49
82249;BME280;71851;49.092;18.918;2023-07-29T07:20:05;96846.13;;;22.86;56.35
82249;BME280;71851;49.092;18.918;2023-07-29T07:23:06;96831.66;;;22.87;56.30
82249;BME280;71851;49.092;18.918;2023-07-29T07:26:08;96842.91;;;22.89;56.57
82249;BME280;71851;49.092;18.918;2023-07-29T07:29:09;96839.69;;;22.92;56.55
82249;BME280;71851;49.092;18.918;2023-07-29T07:32:09;96835.41;;;22.96;56.41
82249;BME280;71851;49.092;18.918;2023-07-29T07:35:10;96839.69;;;22.97;56.46
82249;BME280;71851;49.092;18.918;2023-07-29T07:38:10;96838.63;;;22.98;56.55
82249;BME280;71851;49.092;18.918;2023-07-29T07:41:10;96840.50;;;23.03;56.11
82249;BME280;71851;49.092;18.918;2023-07-29T07:44:11;96828.69;;;23.04;56.32
82249;BME280;71851;49.092;18.918;2023-07-29T07:47:15;96824.16;;;23.04;56.54
82249;BME280;71851;49.092;18.918;2023-07-29T07:50:15;96823.06;;;23.05;56.24
82249;BME280;71851;49.092;18.918;2023-07-29T07:53:16;96822.00;;;23.06;56.05
82249;BME280;71851;49.092;18.918;2023-07-29T07:56:17;96820.91;;;23.07;55.98
82249;BME280;71851;49.092;18.918;2023-07-29T07:59:17;96819.88;;;23.08;55.96
82249;BME280;71851;49.092;18.918;2023-07-29T08:02:18;96825.75;;;23.10;55.95
82249;BME280;71851;49.092;18.918;2023-07-29T08:05:19;96816.91;;;23.10;56.44
82249;BME280;71851;49.092;18.918;2023-07-29T08:08:19;96816.63;;;23.16;56.05
82249;BME280;71851;49.092;18.918;2023-07-29T08:11:19;96813.69;;;23.18;55.92
82249;BME280;71851;49.092;18.918;2023-07-29T08:14:20;96809.66;;;23.20;56.10
82249;BME280;71851;49.092;18.918;2023-07-29T08:17:20;96799.19;;;23.24;55.87
82249;BME280;71851;49.092;18.918;2023-07-29T08:20:21;96805.91;;;23.21;56.02
82249;BME280;71851;49.092;18.918;2023-07-29T08:23:21;96801.06;;;23.23;55.82
82249;BME280;71851;49.092;18.918;2023-07-29T08:26:22;96801.06;;;23.28;55.68
82249;BME280;71851;49.092;18.918;2023-07-29T08:29:22;96790.06;;;23.30;55.79
82249;BME280;71851;49.092;18.918;2023-07-29T08:32:22;96802.16;;;23.32;55.63
82249;BME280;71851;49.092;18.918;2023-07-29T08:35:23;96802.41;;;23.36;55.86
82249;BME280;71851;49.092;18.918;2023-07-29T08:38:23;96790.88;;;23.35;55.71
82249;BME280;71851;49.092;18.918;2023-07-29T08:44:44;96791.41;;;23.37;56.00
82249;BME280;71851;49.092;18.918;2023-07-29T08:47:47;96783.63;;;23.41;56.37
82249;BME280;71851;49.092;18.918;2023-07-29T08:50:52;96789.78;;;23.41;56.39
82249;BME280;71851;49.092;18.918;2023-07-29T08:53:53;96786.06;;;23.42;55.98
82249;BME280;71851;49.092;18.918;2023-07-29T08:56:54;96791.13;;;23.44;56.13
82249;BME280;71851;49.092;18.918;2023-07-29T08:59:55;96791.09;;;23.49;55.86
82249;BME280;71851;49.092;18.918;2023-07-29T09:02:56;96795.91;;;23.52;55.65
82249;BME280;71851;49.092;18.918;2023-07-29T09:06:02;96787.34;;;23.50;55.80
82249;BME280;71851;49.092;18.918;2023-07-29T09:09:03;96790.84;;;23.50;55.95
82249;BME280;71851;49.092;18.918;2023-07-29T09:12:04;96789.22;;;23.49;56.01
82249;BME280;71851;49.092;18.918;2023-07-29T09:15:05;96794.59;;;23.49;55.68
82249;BME280;71851;49.092;18.918;2023-07-29T09:18:10;96791.63;;;23.51;55.58
82249;BME280;71851;49.092;18.918;2023-07-29T09:21:11;96782.81;;;23.50;55.89
82249;BME280;71851;49.092;18.918;2023-07-29T09:24:12;96790.84;;;23.50;55.62
82249;BME280;71851;49.092;18.918;2023-07-29T09:27:24;96789.75;;;23.51;55.64
82249;BME280;71851;49.092;18.918;2023-07-29T09:30:24;96786.25;;;23.51;55.63
82249;BME280;71851;49.092;18.918;2023-07-29T09:33:26;96774.78;;;23.50;55.64
82249;BME280;71851;49.092;18.918;2023-07-29T09:36:27;96779.03;;;23.51;55.77
82249;BME280;71851;49.092;18.918;2023-07-29T09:39:28;96772.88;;;23.51;55.92
82249;BME280;71851;49.092;18.918;2023-07-29T09:42:28;96770.19;;;23.51;55.87
82249;BME280;71851;49.092;18.918;2023-07-29T09:45:29;96764.59;;;23.52;55.51
82249;BME280;71851;49.092;18.918;2023-07-29T09:48:36;96765.34;;;23.53;56.00
82249;BME280;71851;49.092;18.918;2023-07-29T09:51:38;96762.69;;;23.53;56.03
82249;BME280;71851;49.092;18.918;2023-07-29T09:54:39;96758.94;;;23.54;56.16
82249;BME280;71851;49.092;18.918;2023-07-29T09:57:40;96751.72;;;23.54;55.89
82249;BME280;71851;49.092;18.918;2023-07-29T10:00:41;96758.38;;;23.57;56.64
82249;BME280;71851;49.092;18.918;2023-07-29T10:03:42;96753.81;;;23.57;56.29
82249;BME280;71851;49.092;18.918;2023-07-29T10:06:42;96753.53;;;23.59;56.37
82249;BME280;71851;49.092;18.918;2023-07-29T10:09:44;96743.09;;;23.62;56.40
82249;BME280;71851;49.092;18.918;2023-07-29T10:12:46;96735.53;;;23.70;56.29
82249;BME280;71851;49.092;18.918;2023-07-29T10:15:46;96739.78;;;23.76;56.16
82249;BME280;71851;49.092;18.918;2023-07-29T10:18:48;96726.91;;;23.83;56.03
82249;BME280;71851;49.092;18.918;2023-07-29T10:21:50;96727.94;;;23.87;56.05
82249;BME280;71851;49.092;18.918;2023-07-29T10:24:51;96727.38;;;23.90;55.87
82249;BME280;71851;49.092;18.918;2023-07-29T10:28:04;96731.16;;;24.56;56.13
82249;BME280;71851;49.092;18.918;2023-07-29T10:31:05;96716.59;;;27.99;46.22
82249;BME280;71851;49.092;18.918;2023-07-29T10:34:06;96720.44;;;29.43;41.66
82249;BME280;71851;49.092;18.918;2023-07-29T10:37:08;96715.41;;;29.84;41.01
82249;BME280;71851;49.092;18.918;2023-07-29T10:40:10;96710.97;;;29.97;40.73
82249;BME280;71851;49.092;18.918;2023-07-29T10:43:12;96707.16;;;30.06;40.84
82249;BME280;71851;49.092;18.918;2023-07-29T10:46:17;96694.41;;;30.07;40.03
82249;BME280;71851;49.092;18.918;2023-07-29T10:49:23;96691.72;;;30.24;39.52
82249;BME280;71851;49.092;18.918;2023-07-29T10:55:36;96698.91;;;29.21;41.89
82249;BME280;71851;49.092;18.918;2023-07-29T10:58:37;96682.31;;;28.52;43.87
82249;BME280;71851;49.092;18.918;2023-07-29T11:01:41;96675.56;;;28.11;45.14
82249;BME280;71851;49.092;18.918;2023-07-29T11:04:50;96673.09;;;28.23;44.51
82249;BME280;71851;49.092;18.918;2023-07-29T11:07:50;96668.34;;;28.20;44.61
82249;BME280;71851;49.092;18.918;2023-07-29T11:14:02;96666.59;;;26.89;47.78
82249;BME280;71851;49.092;18.918;2023-07-29T11:17:04;96656.19;;;27.10;47.50
82249;BME280;71851;49.092;18.918;2023-07-29T11:20:06;96659.50;;;26.21;49.65
82249;BME280;71851;49.092;18.918;2023-07-29T11:23:09;96659.44;;;25.88;51.30
82249;BME280;71851;49.092;18.918;2023-07-29T11:26:10;96665.13;;;25.50;52.12
82249;BME280;71851;49.092;18.918;2023-07-29T11:29:10;96661.22;;;25.42;52.43
82249;BME280;71851;49.092;18.918;2023-07-29T11:32:10;96657.44;;;25.19;53.38
82249;BME280;71851;49.092;18.918;2023-07-29T11:35:18;96649.72;;;25.37;53.29
82249;BME280;71851;49.092;18.918;2023-07-29T11:38:20;96652.13;;;24.96;54.43
82249;BME280;71851;49.092;18.918;2023-07-29T11:41:20;96667.19;;;24.92;55.25
82249;BME280;71851;49.092;18.918;2023-07-29T11:44:22;96674.19;;;24.64;55.75
82249;BME280;71851;49.092;18.918;2023-07-29T11:47:22;96677.94;;;24.63;60.29
82249;BME280;71851;49.092;18.918;2023-07-29T11:50:23;96683.72;;;24.52;61.53
82249;BME280;71851;49.092;18.918;2023-07-29T11:53:27;96694.34;;;24.04;58.30
82249;BME280;71851;49.092;18.918;2023-07-29T11:56:29;96694.00;;;23.72;66.96
82249;BME280;71851;49.092;18.918;2023-07-29T11:59:31;96688.31;;;23.30;65.17
82249;BME280;71851;49.092;18.918;2023-07-29T12:02:36;96692.38;;;23.22;67.65
82249;BME280;71851;49.092;18.918;2023-07-29T12:05:37;96687.53;;;23.34;63.93
82249;BME280;71851;49.092;18.918;2023-07-29T12:08:38;96702.34;;;23.65;65.16
82249;BME280;71851;49.092;18.918;2023-07-29T12:11:39;96706.28;;;23.78;64.46
82249;BME280;71851;49.092;18.918;2023-07-29T12:14:42;96705.25;;;23.74;61.55
82249;BME280;71851;49.092;18.918;2023-07-29T12:17:43;96702.97;;;23.91;65.46
82249;BME280;71851;49.092;18.918;2023-07-29T12:20:43;96706.66;;;24.00;65.77
82249;BME280;71851;49.092;18.918;2023-07-29T12:23:44;96708.00;;;23.98;63.28
82249;BME280;71851;49.092;18.918;2023-07-29T12:26:46;96701.81;;;24.07;62.88
82249;BME280;71851;49.092;18.918;2023-07-29T12:29:47;96699.28;;;23.82;60.65
82249;BME280;71851;49.092;18.918;2023-07-29T12:32:48;96697.81;;;24.00;60.19
82249;BME280;71851;49.092;18.918;2023-07-29T12:35:50;96695.66;;;24.07;60.02
82249;BME280;71851;49.092;18.918;2023-07-29T12:38:50;96692.38;;;24.43;61.92
82249;BME280;71851;49.092;18.918;2023-07-29T12:41:53;96693.03;;;24.30;61.92
82249;BME280;71851;49.092;18.918;2023-07-29T12:44:54;96691.66;;;23.99;60.45
82249;BME280;71851;49.092;18.918;2023-07-29T12:47:55;96699.75;;;23.94;61.39
82249;BME280;71851;49.092;18.918;2023-07-29T12:50:56;96692.03;;;24.21;63.51
82249;BME280;71851;49.092;18.918;2023-07-29T12:53:56;96691.00;;;24.17;61.51
82249;BME280;71851;49.092;18.918;2023-07-29T12:56:56;96699.16;;;24.36;60.47
82249;BME280;71851;49.092;18.918;2023-07-29T12:59:57;96699.72;;;24.62;60.72
82249;BME280;71851;49.092;18.918;2023-07-29T13:02:57;96693.13;;;24.78;62.26
82249;BME280;71851;49.092;18.918;2023-07-29T13:05:58;96685.03;;;24.83;58.46
82249;BME280;71851;49.092;18.918;2023-07-29T13:08:58;96680.97;;;24.85;57.49
82249;BME280;71851;49.092;18.918;2023-07-29T13:11:59;96686.06;;;24.87;58.59
82249;BME280;71851;49.092;18.918;2023-07-29T13:14:59;96680.69;;;24.87;58.70
82249;BME280;71851;49.092;18.918;2023-07-29T13:18:00;96684.03;;;24.74;57.87
82249;BME280;71851;49.092;18.918;2023-07-29T13:21:00;96678.56;;;24.84;58.62
82249;BME280;71851;49.092;18.918;2023-07-29T13:24:00;96680.22;;;24.51;58.98
82249;BME280;71851;49.092;18.918;2023-07-29T13:27:01;96682.03;;;24.61;59.19
82249;BME280;71851;49.092;18.918;2023-07-29T13:30:01;96677.81;;;24.49;58.57
82249;BME280;71851;49.092;18.918;2023-07-29T13:33:02;96685.53;;;24.56;60.48
82249;BME280;71851;49.092;18.918;2023-07-29T13:36:02;96683.94;;;24.84;61.72
82249;BME280;71851;49.092;18.918;2023-07-29T13:39:03;96688.63;;;24.44;61.44
82249;BME280;71851;49.092;18.918;2023-07-29T13:42:03;96678.88;;;24.25;62.81
82249;BME280;71851;49.092;18.918;2023-07-29T13:45:05;96678.13;;;24.48;60.65
82249;BME280;71851;49.092;18.918;2023-07-29T13:48:05;96674.47;;;24.63;60.80
82249;BME280;71851;49.092;18.918;2023-07-29T13:51:06;96664.00;;;24.61;60.23
82249;BME280;71851;49.092;18.918;2023-07-29T13:54:06;96670.00;;;24.53;60.06
82249;BME280;71851;49.092;18.918;2023-07-29T13:57:06;96669.50;;;24.22;62.22
82249;BME280;71851;49.092;18.918;2023-07-29T14:00:07;96680.00;;;24.47;63.67
82249;BME280;71851;49.092;18.918;2023-07-29T14:03:14;96672.41;;;24.55;63.49
82249;BME280;71851;49.092;18.918;2023-07-29T14:06:14;96660.69;;;24.69;60.47
82249;BME280;71851;49.092;18.918;2023-07-29T14:09:15;96672.56;;;24.92;60.52
82249;BME280;71851;49.092;18.918;2023-07-29T14:12:15;96666.03;;;24.51;60.39
82249;BME280;71851;49.092;18.918;2023-07-29T14:15:16;96659.78;;;24.84;59.28
82249;BME280;71851;49.092;18.918;2023-07-29T14:18:16;96650.97;;;25.02;59.52
82249;BME280;71851;49.092;18.918;2023-07-29T14:21:17;96651.31;;;24.95;58.52
82249;BME280;71851;49.092;18.918;2023-07-29T14:24:17;96640.16;;;24.60;59.33
82249;BME280;71851;49.092;18.918;2023-07-29T14:27:18;96642.00;;;24.64;58.98
82249;BME280;71851;49.092;18.918;2023-07-29T14:30:18;96633.25;;;24.54;59.38
82249;BME280;71851;49.092;18.918;2023-07-29T14:33:19;96644.69;;;24.35;59.99
82249;BME280;71851;49.092;18.918;2023-07-29T14:36:19;96637.69;;;24.39;59.66
82249;BME280;71851;49.092;18.918;2023-07-29T14:39:20;96629.72;;;24.29;60.04
82249;BME280;71851;49.092;18.918;2023-07-29T14:42:20;96627.00;;;24.06;60.72
82249;BME280;71851;49.092;18.918;2023-07-29T14:45:21;96628.63;;;24.07;60.23
82249;BME280;71851;49.092;18.918;2023-07-29T14:48:22;96627.16;;;24.19;59.88
82249;BME280;71851;49.092;18.918;2023-07-29T14:51:22;96618.81;;;23.92;60.64
82249;BME280;71851;49.092;18.918;2023-07-29T14:54:23;96605.00;;;23.75;60.64
82249;BME280;71851;49.092;18.918;2023-07-29T14:57:23;96609.91;;;23.97;60.02
82249;BME280;71851;49.092;18.918;2023-07-29T15:00:24;96614.66;;;23.71;60.75
82249;BME280;71851;49.092;18.918;2023-07-29T15:03:25;96625.97;;;23.68;60.91
82249;BME280;71851;49.092;18.918;2023-07-29T15:06:25;96633.31;;;23.86;60.05
82249;BME280;71851;49.092;18.918;2023-07-29T15:09:25;96623.19;;;23.78;59.80
82249;BME280;71851;49.092;18.918;2023-07-29T15:12:26;96614.06;;;23.79;60.40
82249;BME280;71851;49.092;18.918;2023-07-29T15:15:26;96623.56;;;23.67;60.75
82249;BME280;71851;49.092;18.918;2023-07-29T15:18:27;96623.50;;;23.77;60.07
82249;BME280;71851;49.092;18.918;2023-07-29T15:21:30;96626.41;;;23.80;60.13
82249;BME280;71851;49.092;18.918;2023-07-29T15:24:30;96622.69;;;23.76;59.99
82249;BME280;71851;49.092;18.918;2023-07-29T15:27:31;96614.94;;;23.70;60.74
82249;BME280;71851;49.092;18.918;2023-07-29T15:30:35;96614.66;;;23.71;60.01
82249;BME280;71851;49.092;18.918;2023-07-29T15:33:35;96612.00;;;23.71;59.98
82249;BME280;71851;49.092;18.918;2023-07-29T15:36:36;96619.94;;;23.81;59.98
82249;BME280;71851;49.092;18.918;2023-07-29T15:39:36;96621.34;;;23.74;60.06
82249;BME280;71851;49.092;18.918;2023-07-29T15:42:37;96629.28;;;23.89;59.23
82249;BME280;71851;49.092;18.918;2023-07-29T15:45:37;96623.00;;;24.03;59.33
82249;BME280;71851;49.092;18.918;2023-07-29T15:48:38;96609.59;;;24.32;59.22
82249;BME280;71851;49.092;18.918;2023-07-29T15:51:39;96615.81;;;23.94;59.52
82249;BME280;71851;49.092;18.918;2023-07-29T15:54:40;96611.13;;;23.81;60.00
82249;BME280;71851;49.092;18.918;2023-07-29T15:57:40;96612.63;;;23.92;59.74
82249;BME280;71851;49.092;18.918;2023-07-29T16:00:41;96617.88;;;23.73;60.58